KEKO/EKO METAR and TAF weather

Enter ICAO airport designator
Station Type Date Time Source
KEKO METAR 2018/12/10 17:04 UTC NOAA

KEKO 101704Z AUTO 06005KT 10SM OVC005 M05/M07 A3028 RMK AO2 T10501067


Station Type Date Time Source
KEKO Decoded METAR 2018/12/10 17:04 UTC NOAA

ELKO REGIONAL AIRPORT, NV, United States (KEKO) 40-50N 115-47W 1547M
Dec 10, 2018 - 12:04 PM EST / 2018.12.10 1704 UTC
Wind: from the ENE (060 degrees) at 6 MPH (5 KT):0
Visibility: 10 mile(s):0
Sky conditions: overcast
Temperature: 23.0 F (-5.0 C)
Windchill: 15 F (-9 C):1
Dew Point: 19.9 F (-6.7 C)
Relative Humidity: 87%
Pressure (altimeter): 30.28 in. Hg (1025 hPa)
ob: KEKO 101704Z AUTO 06005KT 10SM OVC005 M05/M07 A3028 RMK AO2 T10501067
cycle: 17

Station Type Date Time Source
KEKO TAF 2018/12/10 18:22 UTC NOAA

TAF KEKO 101720Z 1018/1118 06003KT P6SM VCFG SCT010 OVC120
FM110000 VRB03KT P6SM VCSH SCT020 BKN040 OVC250
FM110300 05003KT 5SM -SN BR OVC025
FM110800 VRB03KT P6SM VCFG SCT001 BKN035


Example: see airport list